createdAt,value
2019-04-10T00:00:47.783Z,69.81
2019-04-10T00:01:27.822Z,69.81
2019-04-10T00:02:04.946Z,70.33
2019-04-10T00:02:41.762Z,70.33
2019-04-10T00:03:27.826Z,69.88
2019-04-10T00:03:56.681Z,69.93
2019-04-10T00:04:32.771Z,69.93
2019-04-10T00:05:09.704Z,69.53
2019-04-10T00:05:45.799Z,69.42
2019-04-10T00:06:21.926Z,69.29
2019-04-10T00:07:10.531Z,69.15
2019-04-10T00:07:35.822Z,68.99
2019-04-10T00:08:12.324Z,68.99
2019-04-10T00:08:48.527Z,68.79
2019-04-10T00:09:25.272Z,68.77
2019-04-10T00:10:01.512Z,68.73
2019-04-10T00:10:38.330Z,68.76
2019-04-10T00:11:14.506Z,68.84
2019-04-10T00:11:51.384Z,68.93
2019-04-10T00:12:27.587Z,68.93
2019-04-10T00:13:04.480Z,68.59
2019-04-10T00:13:40.710Z,68.43
2019-04-10T00:14:16.930Z,68.24
2019-04-10T00:14:53.014Z,68.03
2019-04-10T00:15:29.135Z,67.88
2019-04-10T00:16:05.623Z,67.76
2019-04-10T00:16:42.496Z,67.64
2019-04-10T00:17:18.675Z,67.52
2019-04-10T00:17:55.671Z,67.34
2019-04-10T00:18:31.931Z,67.14
2019-04-10T00:19:08.732Z,67.14
2019-04-10T00:19:45.582Z,64.82
2019-04-10T00:20:22.536Z,65.78
2019-04-10T00:20:58.697Z,64.72
2019-04-10T00:21:35.529Z,64.79
2019-04-10T00:22:11.794Z,64.79
2019-04-10T00:22:48.654Z,64.55
2019-04-10T00:23:24.853Z,64.52
2019-04-10T00:24:01.883Z,64.52
2019-04-10T00:24:37.957Z,64.00
2019-04-10T00:25:14.918Z,64.00
2019-04-10T00:25:51.018Z,63.39
2019-04-10T00:26:27.880Z,63.17
2019-04-10T00:27:04.128Z,63.35
2019-04-10T00:27:40.954Z,63.26
2019-04-10T00:28:17.196Z,63.19
2019-04-10T00:28:53.878Z,62.98
2019-04-10T00:29:30.019Z,62.97
2019-04-10T00:30:06.946Z,62.97
2019-04-10T00:30:43.127Z,62.94
2019-04-10T00:31:19.956Z,62.80
2019-04-10T00:31:56.447Z,62.65
2019-04-10T00:32:32.534Z,62.62
2019-04-10T00:33:08.523Z,62.49
2019-04-10T00:33:45.095Z,62.38
2019-04-10T00:34:21.278Z,62.26
2019-04-10T00:34:58.162Z,62.08
2019-04-10T00:35:35.165Z,61.87
2019-04-10T00:36:12.128Z,61.69
2019-04-10T00:36:49.063Z,61.50
2019-04-10T00:37:28.457Z,61.34
2019-04-10T00:38:02.977Z,61.21
2019-04-10T00:38:39.914Z,60.77
2019-04-10T00:39:16.046Z,60.25
2019-04-10T00:39:52.998Z,60.11
2019-04-10T00:40:29.157Z,59.85
2019-04-10T00:41:06.021Z,59.58
2019-04-10T00:41:42.086Z,59.46
2019-04-10T00:42:18.978Z,59.35
2019-04-10T00:42:57.037Z,59.22
2019-04-10T00:43:32.940Z,59.05
2019-04-10T00:44:09.185Z,58.75
2019-04-10T00:44:45.936Z,58.52
2019-04-10T00:45:22.375Z,58.23
2019-04-10T00:45:58.571Z,57.84
2019-04-10T00:46:34.810Z,57.68
2019-04-10T00:47:10.934Z,57.45
2019-04-10T00:47:47.747Z,57.33
2019-04-10T00:48:24.025Z,57.20
2019-04-10T00:49:00.627Z,56.97
2019-04-10T00:49:37.723Z,56.85
2019-04-10T00:50:14.622Z,56.72
2019-04-10T00:50:50.913Z,56.62
2019-04-10T00:51:27.591Z,56.39
2019-04-10T00:52:03.916Z,56.26
2019-04-10T00:52:40.677Z,56.20
2019-04-10T00:53:17.010Z,56.04
2019-04-10T00:53:53.881Z,55.83
2019-04-10T00:54:30.936Z,55.74
2019-04-10T00:55:07.780Z,55.32
2019-04-10T00:55:44.095Z,55.18
2019-04-10T00:56:20.774Z,54.98
2019-04-10T00:56:56.986Z,55.01
2019-04-10T00:57:33.835Z,54.92
2019-04-10T00:58:10.071Z,54.85
2019-04-10T00:58:46.070Z,54.73
2019-04-10T00:59:22.069Z,54.70
2019-04-10T00:59:58.860Z,54.59
2019-04-10T01:00:36.796Z,54.25
2019-04-10T01:01:13.797Z,54.14
2019-04-10T01:01:50.026Z,54.11
2019-04-10T01:02:26.888Z,54.07
2019-04-10T01:03:03.118Z,53.99
2019-04-10T01:03:47.285Z,53.92
2019-04-10T01:04:23.024Z,53.96
2019-04-10T01:04:59.041Z,53.81
2019-04-10T01:05:35.397Z,53.58
2019-04-10T01:06:11.609Z,53.53
2019-04-10T01:06:48.400Z,53.66
2019-04-10T01:07:35.762Z,53.52
2019-04-10T01:08:02.410Z,53.46
2019-04-10T01:08:38.418Z,53.36
2019-04-10T01:09:15.389Z,53.25
2019-04-10T01:09:51.673Z,53.19
2019-04-10T01:10:28.483Z,53.11
2019-04-10T01:11:04.677Z,53.04
2019-04-10T01:11:41.423Z,52.94
2019-04-10T01:12:17.510Z,52.72
2019-04-10T01:12:54.442Z,52.67
2019-04-10T01:13:30.485Z,52.66
2019-04-10T01:14:07.489Z,52.63
2019-04-10T01:14:43.554Z,52.47
2019-04-10T01:15:20.440Z,52.23
2019-04-10T01:15:56.473Z,51.78
2019-04-10T01:16:33.496Z,51.70
2019-04-10T01:17:09.594Z,51.49
2019-04-10T01:17:46.600Z,51.35
2019-04-10T01:18:23.384Z,51.08
2019-04-10T01:18:59.586Z,51.01
2019-04-10T01:19:36.341Z,50.96
2019-04-10T01:20:13.334Z,50.96
2019-04-10T01:20:50.158Z,50.67
2019-04-10T01:21:26.564Z,50.48
2019-04-10T01:22:03.122Z,50.16
2019-04-10T01:22:39.657Z,50.14
2019-04-10T01:23:16.076Z,50.22
2019-04-10T01:23:53.250Z,50.23
2019-04-10T01:24:29.989Z,50.33
2019-04-10T01:25:06.244Z,50.43
2019-04-10T01:25:42.936Z,50.49
2019-04-10T01:26:19.186Z,50.52
2019-04-10T01:26:55.928Z,50.61
2019-04-10T01:27:32.172Z,50.49
2019-04-10T01:28:08.763Z,50.52
2019-04-10T01:28:45.183Z,50.52
2019-04-10T01:29:21.707Z,50.60
2019-04-10T01:29:58.048Z,50.65
2019-04-10T01:30:34.813Z,50.71
2019-04-10T01:31:11.021Z,50.78
2019-04-10T01:31:47.682Z,50.91
2019-04-10T01:32:23.847Z,50.97
2019-04-10T01:33:00.671Z,50.93
2019-04-10T01:33:36.912Z,51.06
2019-04-10T01:34:13.577Z,51.02
2019-04-10T01:34:49.746Z,51.00
2019-04-10T01:35:26.619Z,50.93
2019-04-10T01:36:02.861Z,50.76
2019-04-10T01:36:39.480Z,50.70
2019-04-10T01:37:16.572Z,50.73
2019-04-10T01:37:57.699Z,50.68
2019-04-10T01:38:30.660Z,50.57
2019-04-10T01:39:10.457Z,50.43
2019-04-10T01:39:46.568Z,50.31
2019-04-10T01:40:23.366Z,50.24
2019-04-10T01:40:59.537Z,50.10
2019-04-10T01:41:36.289Z,49.99
2019-04-10T01:42:12.485Z,49.94
2019-04-10T01:43:02.400Z,49.72
2019-04-10T01:43:26.643Z,49.53
2019-04-10T01:44:03.477Z,49.38
2019-04-10T01:44:40.589Z,49.04
2019-04-10T01:45:17.492Z,49.00
2019-04-10T01:45:54.008Z,49.04
2019-04-10T01:46:33.258Z,49.10
2019-04-10T01:47:07.896Z,49.05
2019-04-10T01:47:43.997Z,48.90
2019-04-10T01:48:19.991Z,48.79
2019-04-10T01:48:56.035Z,48.76
2019-04-10T01:49:32.254Z,48.69
2019-04-10T01:50:08.470Z,48.41
2019-04-10T01:50:44.637Z,48.26
2019-04-10T01:51:21.385Z,48.21
2019-04-10T01:51:57.795Z,48.11
2019-04-10T01:52:33.932Z,48.09
2019-04-10T01:53:09.955Z,48.00
2019-04-10T01:53:46.180Z,47.95
2019-04-10T01:54:22.743Z,47.90
2019-04-10T01:54:59.754Z,47.91
2019-04-10T01:55:35.963Z,47.93
2019-04-10T01:56:23.994Z,47.94
2019-04-10T01:56:50.152Z,47.69
2019-04-10T01:57:26.332Z,47.70
2019-04-10T01:58:03.619Z,47.84
2019-04-10T01:58:41.440Z,47.94
2019-04-10T01:59:19.135Z,47.97
2019-04-10T01:59:56.233Z,48.13
2019-04-10T02:00:32.845Z,48.17
2019-04-10T02:01:16.559Z,48.13
2019-04-10T02:02:00.897Z,48.22
2019-04-10T02:02:43.118Z,48.12
2019-04-10T02:03:20.164Z,48.27
2019-04-10T02:03:56.354Z,48.51
2019-04-10T02:04:33.108Z,48.80
2019-04-10T02:05:09.269Z,49.06
2019-04-10T02:05:45.464Z,49.21
2019-04-10T02:06:21.628Z,49.26
2019-04-10T02:06:58.009Z,49.30
2019-04-10T02:07:34.185Z,49.44
2019-04-10T02:08:13.523Z,49.58
2019-04-10T02:08:48.256Z,49.70
2019-04-10T02:09:25.541Z,49.79
2019-04-10T02:10:01.869Z,49.75
2019-04-10T02:10:38.465Z,49.74
2019-04-10T02:11:15.419Z,49.79
2019-04-10T02:11:52.360Z,49.86
2019-04-10T02:12:28.618Z,49.90
2019-04-10T02:13:05.382Z,49.91
2019-04-10T02:13:41.638Z,50.07
2019-04-10T02:14:18.376Z,50.14
2019-04-10T02:14:54.522Z,50.19
2019-04-10T02:15:30.830Z,50.18
2019-04-10T02:16:08.212Z,49.99
2019-04-10T02:16:45.256Z,50.05
2019-04-10T02:17:22.253Z,50.11
2019-04-10T02:17:59.139Z,50.22
2019-04-10T02:18:35.820Z,50.27
2019-04-10T02:19:12.243Z,50.17
2019-04-10T02:19:48.460Z,50.12
2019-04-10T02:20:25.033Z,50.06
2019-04-10T02:21:01.258Z,49.93
2019-04-10T02:21:38.024Z,49.85
2019-04-10T02:22:14.201Z,49.82
2019-04-10T02:22:50.249Z,49.74
2019-04-10T02:23:26.434Z,49.75
2019-04-10T02:24:02.951Z,49.71
2019-04-10T02:24:39.076Z,49.55
2019-04-10T02:25:15.776Z,49.33
2019-04-10T02:25:52.804Z,49.23
2019-04-10T02:26:29.714Z,49.15
2019-04-10T02:27:05.881Z,49.10
2019-04-10T02:27:42.663Z,49.09
2019-04-10T02:28:18.836Z,49.04
2019-04-10T02:28:55.513Z,48.97
2019-04-10T02:29:31.786Z,48.96
2019-04-10T02:30:10.346Z,48.99
2019-04-10T02:30:47.871Z,49.16
2019-04-10T02:31:26.329Z,49.22
2019-04-10T02:32:04.023Z,49.17
2019-04-10T02:32:43.604Z,49.16
2019-04-10T02:33:18.435Z,49.30
2019-04-10T02:33:57.064Z,49.08
2019-04-10T02:34:32.713Z,48.77
2019-04-10T02:35:13.186Z,48.79
2019-04-10T02:35:47.862Z,48.60
2019-04-10T02:36:25.638Z,48.43
2019-04-10T02:37:02.667Z,48.32
2019-04-10T02:37:39.588Z,48.24
2019-04-10T02:38:33.855Z,48.28
2019-04-10T02:39:05.652Z,48.31
2019-04-10T02:39:37.906Z,47.93
2019-04-10T02:40:10.266Z,47.66
2019-04-10T02:40:47.689Z,47.42
2019-04-10T02:41:23.993Z,47.39
2019-04-10T02:42:00.573Z,47.38
2019-04-10T02:42:37.292Z,47.71
2019-04-10T02:43:16.101Z,47.84
2019-04-10T02:43:53.758Z,47.96
2019-04-10T02:44:30.616Z,47.87
2019-04-10T02:45:08.525Z,47.80
2019-04-10T02:45:44.850Z,47.75
2019-04-10T02:46:22.050Z,47.75
2019-04-10T02:46:59.711Z,47.66
2019-04-10T02:47:37.041Z,47.48
2019-04-10T02:48:13.011Z,47.49
2019-04-10T02:48:50.104Z,47.47
2019-04-10T02:49:27.851Z,47.43
2019-04-10T02:50:06.190Z,47.38
2019-04-10T02:50:42.993Z,47.65
2019-04-10T02:51:20.008Z,47.63
2019-04-10T02:51:57.001Z,47.36
2019-04-10T02:52:34.914Z,47.17
2019-04-10T02:53:11.075Z,47.08
2019-04-10T02:53:48.104Z,46.95
2019-04-10T02:54:25.084Z,46.73
2019-04-10T02:55:01.997Z,46.71
2019-04-10T02:55:38.840Z,46.67
2019-04-10T02:56:15.943Z,46.64
2019-04-10T02:56:52.967Z,46.75
2019-04-10T02:57:29.420Z,46.84
2019-04-10T02:58:06.000Z,46.96
2019-04-10T02:58:42.712Z,46.88
2019-04-10T02:59:18.817Z,46.83
2019-04-10T02:59:55.761Z,46.82
2019-04-10T03:00:33.693Z,46.98
2019-04-10T03:01:11.165Z,46.95
2019-04-10T03:01:49.603Z,46.98
2019-04-10T03:02:26.602Z,47.09
2019-04-10T03:03:03.556Z,47.16
2019-04-10T03:03:40.327Z,47.23
2019-04-10T03:04:16.990Z,47.29
2019-04-10T03:04:55.138Z,47.21
2019-04-10T03:05:32.640Z,47.12
2019-04-10T03:06:11.355Z,47.13
2019-04-10T03:06:47.367Z,46.79
2019-04-10T03:07:23.970Z,46.75
2019-04-10T03:08:01.098Z,46.75
2019-04-10T03:08:57.673Z,46.48
2019-04-10T03:09:32.538Z,46.32
2019-04-10T03:10:07.277Z,46.21
2019-04-10T03:10:40.521Z,46.01
2019-04-10T03:11:12.193Z,46.02
2019-04-10T03:11:47.528Z,46.13
2019-04-10T03:12:23.857Z,46.12
2019-04-10T03:13:00.655Z,46.07
2019-04-10T03:13:38.154Z,45.99
2019-04-10T03:14:14.889Z,45.99
2019-04-10T03:14:52.201Z,46.02
2019-04-10T03:15:29.742Z,45.72
2019-04-10T03:16:07.488Z,45.37
2019-04-10T03:16:43.828Z,45.46
2019-04-10T03:17:19.908Z,45.44
2019-04-10T03:17:56.599Z,45.30
2019-04-10T03:18:32.870Z,45.25
2019-04-10T03:19:09.488Z,45.21
2019-04-10T03:19:45.635Z,45.32
2019-04-10T03:20:22.451Z,45.31
2019-04-10T03:20:58.539Z,45.29
2019-04-10T03:21:35.414Z,45.20
2019-04-10T03:22:12.449Z,45.06
2019-04-10T03:22:49.274Z,45.01
2019-04-10T03:23:25.370Z,44.98
2019-04-10T03:24:02.125Z,45.04
2019-04-10T03:24:38.379Z,44.98
2019-04-10T03:25:14.948Z,44.86
2019-04-10T03:25:51.135Z,44.87
2019-04-10T03:26:27.886Z,44.79
2019-04-10T03:27:04.211Z,44.59
2019-04-10T03:27:40.702Z,44.30
2019-04-10T03:28:16.799Z,44.33
2019-04-10T03:28:53.519Z,43.96
2019-04-10T03:29:29.943Z,43.92
2019-04-10T03:30:07.593Z,43.96
2019-04-10T03:30:46.492Z,43.92
2019-04-10T03:31:24.714Z,44.00
2019-04-10T03:32:21.125Z,43.91
2019-04-10T03:33:12.394Z,43.96
2019-04-10T03:34:16.081Z,44.21
2019-04-10T03:34:54.829Z,43.91
2019-04-10T03:35:47.105Z,43.72
2019-04-10T03:36:24.367Z,43.70
2019-04-10T03:37:01.803Z,43.65
2019-04-10T03:37:40.293Z,43.57
2019-04-10T03:38:18.175Z,43.56
2019-04-10T03:39:00.221Z,43.48
2019-04-10T03:39:35.621Z,43.37
2019-04-10T03:40:11.502Z,43.36
2019-04-10T03:40:48.122Z,43.44
2019-04-10T03:41:24.813Z,43.40
2019-04-10T03:42:01.419Z,43.40
2019-04-10T03:42:39.114Z,43.61
2019-04-10T03:43:15.868Z,43.86
2019-04-10T03:43:52.445Z,43.87
2019-04-10T03:44:28.918Z,43.78
2019-04-10T03:45:05.589Z,43.85
2019-04-10T03:45:42.052Z,43.97
2019-04-10T03:46:19.493Z,43.92
2019-04-10T03:46:58.695Z,43.33
2019-04-10T03:47:35.546Z,43.40
2019-04-10T03:48:12.123Z,43.69
2019-04-10T03:48:49.433Z,43.80
2019-04-10T03:49:26.141Z,43.56
2019-04-10T03:50:02.817Z,43.43
2019-04-10T03:50:39.635Z,43.52
2019-04-10T03:51:16.566Z,43.62
2019-04-10T03:51:53.241Z,43.51
2019-04-10T03:52:29.816Z,43.50
2019-04-10T03:53:07.526Z,43.44
2019-04-10T03:53:44.537Z,43.46
2019-04-10T03:54:21.177Z,43.91
2019-04-10T03:54:58.611Z,44.12
2019-04-10T03:55:35.329Z,44.23
2019-04-10T03:56:12.035Z,44.42
2019-04-10T03:56:49.912Z,44.73
2019-04-10T03:57:27.117Z,44.79
2019-04-10T03:58:03.615Z,44.81
2019-04-10T03:58:40.212Z,44.66
2019-04-10T03:59:16.978Z,44.28
2019-04-10T03:59:53.844Z,43.88
2019-04-10T04:00:30.616Z,43.83
2019-04-10T04:01:07.125Z,43.81
2019-04-10T04:01:43.513Z,43.83
2019-04-10T04:02:20.030Z,43.84
2019-04-10T04:02:56.335Z,43.83
2019-04-10T04:03:32.972Z,43.77
2019-04-10T04:04:09.550Z,43.62
2019-04-10T04:04:46.109Z,43.46
2019-04-10T04:05:22.526Z,43.44
2019-04-10T04:06:00.098Z,43.67
2019-04-10T04:06:36.791Z,43.70
2019-04-10T04:07:13.447Z,43.90
2019-04-10T04:07:50.702Z,43.76
2019-04-10T04:08:27.791Z,43.43
2019-04-10T04:09:10.871Z,43.37
2019-04-10T04:09:44.182Z,43.19
2019-04-10T04:10:20.659Z,43.19
2019-04-10T04:10:57.322Z,43.33
2019-04-10T04:11:33.959Z,43.41
2019-04-10T04:12:10.574Z,43.47
2019-04-10T04:12:46.932Z,43.44
2019-04-10T04:13:23.691Z,43.67
2019-04-10T04:14:00.206Z,44.07
2019-04-10T04:14:36.722Z,44.06
2019-04-10T04:15:13.586Z,44.04
2019-04-10T04:15:50.584Z,43.85
2019-04-10T04:16:26.915Z,43.83
2019-04-10T04:17:04.017Z,43.84
2019-04-10T04:17:40.185Z,44.02
2019-04-10T04:18:17.198Z,44.03
2019-04-10T04:18:53.435Z,43.99
2019-04-10T04:19:30.971Z,44.02
2019-04-10T04:20:07.556Z,43.97
2019-04-10T04:20:43.709Z,43.90
2019-04-10T04:21:19.949Z,43.76
2019-04-10T04:21:56.373Z,43.60
2019-04-10T04:22:32.719Z,43.58
2019-04-10T04:23:09.580Z,43.56
2019-04-10T04:23:46.634Z,43.53
2019-04-10T04:24:26.332Z,43.56
2019-04-10T04:25:02.706Z,43.71
2019-04-10T04:25:38.784Z,43.30
2019-04-10T04:26:14.897Z,43.45
2019-04-10T04:26:50.955Z,43.50
2019-04-10T04:27:27.388Z,43.45
2019-04-10T04:28:04.620Z,43.46
2019-04-10T04:28:41.853Z,43.51
2019-04-10T04:29:18.495Z,43.41
2019-04-10T04:29:55.337Z,43.03
2019-04-10T04:30:32.084Z,42.94
2019-04-10T04:31:09.418Z,43.03
2019-04-10T04:31:45.777Z,43.13
2019-04-10T04:32:21.895Z,43.44
2019-04-10T04:32:58.070Z,43.11
2019-04-10T04:33:34.163Z,43.02
2019-04-10T04:34:10.281Z,43.16
2019-04-10T04:34:47.377Z,43.29
2019-04-10T04:35:23.571Z,43.32
2019-04-10T04:35:59.903Z,43.44
2019-04-10T04:36:37.124Z,43.49
2019-04-10T04:37:13.425Z,43.51
2019-04-10T04:37:50.598Z,43.51
2019-04-10T04:38:27.704Z,43.89
2019-04-10T04:39:18.097Z,43.85
2019-04-10T04:39:43.356Z,43.79
2019-04-10T04:40:19.720Z,44.06
2019-04-10T04:40:56.084Z,44.23
2019-04-10T04:41:32.191Z,44.38
2019-04-10T04:42:09.245Z,44.35
2019-04-10T04:42:45.541Z,44.40
2019-04-10T04:43:22.246Z,44.30
2019-04-10T04:43:59.326Z,44.36
2019-04-10T04:44:35.501Z,44.29
2019-04-10T04:45:12.684Z,44.30
2019-04-10T04:45:48.917Z,44.17
2019-04-10T04:46:26.021Z,44.00
2019-04-10T04:47:03.304Z,44.04
2019-04-10T04:47:40.000Z,44.19
2019-04-10T04:48:17.013Z,44.24
2019-04-10T04:48:52.986Z,43.92
2019-04-10T04:49:29.040Z,43.58
2019-04-10T04:50:05.587Z,43.57
2019-04-10T04:50:42.048Z,43.57
2019-04-10T04:51:21.953Z,43.80
2019-04-10T04:51:58.264Z,43.82
2019-04-10T04:52:34.957Z,43.73
2019-04-10T04:53:11.314Z,43.85
2019-04-10T04:53:48.313Z,43.95
2019-04-10T04:54:25.525Z,44.17
2019-04-10T04:55:02.051Z,44.37
2019-04-10T04:55:38.153Z,44.75
2019-04-10T04:56:14.440Z,44.75
2019-04-10T04:56:50.587Z,44.88
2019-04-10T04:57:26.869Z,45.37
2019-04-10T04:58:04.087Z,45.46
2019-04-10T04:58:40.920Z,45.75
2019-04-10T04:59:18.349Z,45.46
2019-04-10T04:59:54.850Z,45.30
2019-04-10T05:00:32.013Z,45.36
2019-04-10T05:01:08.487Z,45.33
2019-04-10T05:01:44.921Z,45.16
2019-04-10T05:02:21.941Z,45.12
2019-04-10T05:02:58.412Z,45.44
2019-04-10T05:03:35.416Z,45.49
2019-04-10T05:04:11.802Z,45.56
2019-04-10T05:04:49.289Z,45.32
2019-04-10T05:05:25.868Z,45.29
2019-04-10T05:06:02.347Z,45.48
2019-04-10T05:06:39.569Z,45.51
2019-04-10T05:07:16.879Z,45.34
2019-04-10T05:07:59.460Z,45.51
2019-04-10T05:08:32.373Z,45.45
2019-04-10T05:09:09.948Z,45.48
2019-04-10T05:09:46.360Z,45.47
2019-04-10T05:10:22.948Z,45.58
2019-04-10T05:11:00.122Z,45.90
2019-04-10T05:11:36.708Z,45.96
2019-04-10T05:12:13.449Z,45.75
2019-04-10T05:12:50.072Z,45.85
2019-04-10T05:13:26.689Z,45.71
2019-04-10T05:14:03.387Z,45.66
2019-04-10T05:14:40.020Z,45.67
2019-04-10T05:15:16.686Z,45.71
2019-04-10T05:15:53.387Z,45.76
2019-04-10T05:16:30.744Z,45.66
2019-04-10T05:17:08.048Z,45.64
2019-04-10T05:17:44.973Z,45.73
2019-04-10T05:18:21.592Z,46.40
2019-04-10T05:18:58.099Z,46.04
2019-04-10T05:19:34.627Z,45.89
2019-04-10T05:20:11.241Z,45.86
2019-04-10T05:20:50.456Z,45.91
2019-04-10T05:21:25.928Z,45.87
2019-04-10T05:22:02.411Z,45.92
2019-04-10T05:22:39.591Z,45.95
2019-04-10T05:23:16.186Z,45.84
2019-04-10T05:23:53.363Z,45.90
2019-04-10T05:24:30.095Z,45.71
2019-04-10T05:25:06.950Z,45.17
2019-04-10T05:25:43.611Z,45.10
2019-04-10T05:26:20.751Z,45.16
2019-04-10T05:26:57.418Z,45.23
2019-04-10T05:27:34.973Z,45.22
2019-04-10T05:28:11.720Z,45.08
2019-04-10T05:28:48.617Z,45.03
2019-04-10T05:29:25.149Z,45.00
2019-04-10T05:30:02.338Z,44.84
2019-04-10T05:30:38.927Z,45.14
2019-04-10T05:31:15.466Z,45.59
2019-04-10T05:31:52.873Z,45.82
2019-04-10T05:32:30.764Z,46.02
2019-04-10T05:33:08.207Z,46.62
2019-04-10T05:33:44.962Z,46.57
2019-04-10T05:34:22.001Z,46.69
2019-04-10T05:34:58.773Z,46.85
2019-04-10T05:35:36.305Z,46.78
2019-04-10T05:36:17.742Z,47.01
2019-04-10T05:36:57.210Z,46.84
2019-04-10T05:37:33.865Z,46.91
2019-04-10T05:38:10.451Z,47.06
2019-04-10T05:38:48.137Z,47.05
2019-04-10T05:39:24.838Z,47.09
2019-04-10T05:40:01.599Z,47.08
2019-04-10T05:40:38.188Z,47.07
2019-04-10T05:41:15.461Z,47.12
2019-04-10T05:41:52.262Z,47.10
2019-04-10T05:42:29.030Z,46.99
2019-04-10T05:43:05.956Z,46.96
2019-04-10T05:43:42.646Z,46.89
2019-04-10T05:44:20.106Z,46.91
2019-04-10T05:44:56.805Z,47.11
2019-04-10T05:45:33.892Z,46.92
2019-04-10T05:46:10.577Z,46.67
2019-04-10T05:46:47.570Z,46.88
2019-04-10T05:47:24.262Z,47.14
2019-04-10T05:48:01.258Z,47.23
2019-04-10T05:48:37.788Z,46.86
2019-04-10T05:49:14.954Z,46.64
2019-04-10T05:49:51.482Z,46.70
2019-04-10T05:50:27.930Z,46.59
2019-04-10T05:51:07.316Z,46.43
2019-04-10T05:51:43.600Z,46.17
2019-04-10T05:52:20.351Z,45.90
2019-04-10T05:52:56.671Z,45.77
2019-04-10T05:53:32.816Z,45.82
2019-04-10T05:54:09.114Z,45.87
2019-04-10T05:54:45.443Z,45.96
2019-04-10T05:55:22.612Z,46.04
2019-04-10T05:55:58.988Z,46.05
2019-04-10T05:56:36.357Z,45.99
2019-04-10T05:57:12.667Z,46.02
2019-04-10T05:57:49.080Z,45.99
2019-04-10T05:58:25.824Z,45.96
2019-04-10T05:59:03.027Z,46.23
2019-04-10T05:59:40.253Z,46.01
2019-04-10T06:00:17.340Z,45.87
2019-04-10T06:00:53.581Z,45.91
2019-04-10T06:01:35.496Z,46.03
2019-04-10T06:02:08.106Z,46.16
2019-04-10T06:02:44.907Z,46.07
2019-04-10T06:03:21.433Z,45.95
2019-04-10T06:03:57.904Z,45.81
2019-04-10T06:04:34.379Z,45.72
2019-04-10T06:05:10.896Z,45.82
2019-04-10T06:05:47.325Z,46.11
2019-04-10T06:06:24.250Z,46.17
2019-04-10T06:07:01.049Z,46.15
2019-04-10T06:07:37.644Z,46.03
2019-04-10T06:08:14.059Z,45.98
2019-04-10T06:08:51.140Z,45.98
2019-04-10T06:09:27.353Z,46.29
2019-04-10T06:10:06.985Z,46.58
2019-04-10T06:10:41.653Z,46.44
2019-04-10T06:11:17.691Z,46.68
2019-04-10T06:11:53.935Z,47.01
2019-04-10T06:12:30.601Z,47.10
2019-04-10T06:13:07.040Z,47.24
2019-04-10T06:13:43.188Z,47.33
2019-04-10T06:14:19.265Z,47.50
2019-04-10T06:14:56.628Z,47.13
2019-04-10T06:15:33.037Z,46.85
2019-04-10T06:16:09.747Z,46.87
2019-04-10T06:16:46.335Z,46.86
2019-04-10T06:17:22.766Z,46.84
2019-04-10T06:17:59.065Z,46.60
2019-04-10T06:18:35.630Z,46.43
2019-04-10T06:19:12.531Z,46.28
2019-04-10T06:19:49.396Z,46.23
2019-04-10T06:20:26.612Z,46.28
2019-04-10T06:21:03.140Z,46.26
2019-04-10T06:21:39.860Z,46.20
2019-04-10T06:22:16.828Z,46.01
2019-04-10T06:22:54.573Z,45.73
2019-04-10T06:23:31.724Z,45.56
2019-04-10T06:24:08.523Z,45.41
2019-04-10T06:24:45.296Z,45.42
2019-04-10T06:25:24.668Z,45.57
2019-04-10T06:26:00.555Z,45.59
2019-04-10T06:26:37.542Z,45.40
2019-04-10T06:27:14.273Z,45.44
2019-04-10T06:27:50.726Z,45.59
2019-04-10T06:28:27.924Z,45.51
2019-04-10T06:29:05.094Z,45.55
2019-04-10T06:29:41.379Z,45.68
2019-04-10T06:30:17.736Z,45.67
2019-04-10T06:30:54.515Z,45.49
2019-04-10T06:31:30.966Z,45.32
2019-04-10T06:32:07.444Z,45.30
2019-04-10T06:32:53.856Z,45.29
2019-04-10T06:33:36.684Z,45.45
2019-04-10T06:34:15.986Z,45.32
2019-04-10T06:34:51.637Z,45.29
2019-04-10T06:35:28.393Z,45.43
2019-04-10T06:36:05.037Z,45.60
2019-04-10T06:36:41.748Z,45.71
2019-04-10T06:37:18.431Z,45.77
2019-04-10T06:37:55.038Z,45.74
2019-04-10T06:38:32.089Z,45.81
2019-04-10T06:39:09.505Z,45.77
2019-04-10T06:39:46.506Z,45.75
2019-04-10T06:40:25.906Z,45.62
2019-04-10T06:41:02.154Z,45.82
2019-04-10T06:41:39.095Z,46.05
2019-04-10T06:42:16.845Z,46.19
2019-04-10T06:42:54.944Z,46.16
2019-04-10T06:43:32.833Z,46.09
2019-04-10T06:44:09.875Z,46.01
2019-04-10T06:44:46.506Z,46.06
2019-04-10T06:45:24.017Z,46.12
2019-04-10T06:46:00.693Z,46.31
2019-04-10T06:46:38.884Z,46.64
2019-04-10T06:47:15.519Z,46.72
2019-04-10T06:47:52.969Z,46.25
2019-04-10T06:48:32.115Z,46.32
2019-04-10T06:49:09.319Z,46.35
2019-04-10T06:49:46.366Z,46.51
2019-04-10T06:50:23.171Z,46.94
2019-04-10T06:50:59.888Z,46.97
2019-04-10T06:51:37.512Z,47.02
2019-04-10T06:52:14.488Z,47.10
2019-04-10T06:52:51.349Z,47.36
2019-04-10T06:53:28.910Z,47.61
2019-04-10T06:54:10.777Z,47.86
2019-04-10T06:54:53.980Z,47.91
2019-04-10T06:55:30.785Z,47.82
2019-04-10T06:56:07.369Z,47.55
2019-04-10T06:56:45.354Z,47.69
2019-04-10T06:57:22.949Z,47.77
2019-04-10T06:58:00.769Z,47.93
2019-04-10T06:58:38.153Z,48.18
2019-04-10T06:59:14.792Z,48.41
2019-04-10T06:59:52.336Z,48.43
2019-04-10T07:00:30.556Z,48.28
2019-04-10T07:01:08.380Z,48.33
2019-04-10T07:01:51.223Z,48.38
2019-04-10T07:02:27.924Z,48.46
2019-04-10T07:03:01.661Z,48.37
2019-04-10T07:03:51.847Z,48.22
2019-04-10T07:04:18.134Z,48.09
2019-04-10T07:04:56.578Z,48.09
2019-04-10T07:05:40.875Z,48.14
2019-04-10T07:06:20.124Z,48.13
2019-04-10T07:07:00.072Z,48.22
2019-04-10T07:07:45.154Z,48.17
2019-04-10T07:08:16.254Z,48.28
2019-04-10T07:08:52.736Z,48.62
2019-04-10T07:09:27.075Z,48.64
2019-04-10T07:10:04.036Z,48.57
2019-04-10T07:10:53.123Z,48.57
2019-04-10T07:11:23.423Z,48.61
2019-04-10T07:12:01.150Z,48.73
2019-04-10T07:12:37.494Z,48.89
2019-04-10T07:13:17.601Z,49.04
2019-04-10T07:13:55.290Z,49.04
2019-04-10T07:14:35.154Z,48.97
2019-04-10T07:15:12.465Z,48.98
2019-04-10T07:15:49.801Z,49.01
2019-04-10T07:16:29.683Z,49.09
2019-04-10T07:17:07.009Z,49.17
2019-04-10T07:17:43.255Z,49.28
2019-04-10T07:18:20.644Z,49.25
2019-04-10T07:18:59.827Z,49.20
2019-04-10T07:19:36.458Z,49.43
2019-04-10T07:20:15.507Z,49.62
2019-04-10T07:20:50.978Z,49.56
2019-04-10T07:21:27.999Z,49.63
2019-04-10T07:22:11.915Z,49.71
2019-04-10T07:22:46.497Z,49.87
2019-04-10T07:23:25.866Z,50.04
2019-04-10T07:24:04.573Z,50.15
2019-04-10T07:24:41.389Z,50.17
2019-04-10T07:25:15.813Z,49.87
2019-04-10T07:25:52.283Z,49.68
2019-04-10T07:26:37.799Z,49.62
2019-04-10T07:27:07.836Z,49.69
2019-04-10T07:27:44.460Z,49.64
2019-04-10T07:28:21.524Z,49.54
2019-04-10T07:28:58.910Z,49.47
2019-04-10T07:29:36.337Z,49.60
2019-04-10T07:30:13.976Z,49.74
2019-04-10T07:30:50.416Z,49.85
2019-04-10T07:31:27.620Z,49.89
2019-04-10T07:32:07.802Z,50.06
2019-04-10T07:32:45.750Z,50.64
2019-04-10T07:33:21.079Z,50.66
2019-04-10T07:33:57.424Z,50.42
2019-04-10T07:34:34.124Z,50.17
2019-04-10T07:35:11.874Z,50.37
2019-04-10T07:35:48.217Z,50.33
2019-04-10T07:36:24.550Z,50.35
2019-04-10T07:37:00.948Z,50.38
2019-04-10T07:37:37.241Z,50.62
2019-04-10T07:38:13.983Z,50.62
2019-04-10T07:38:53.946Z,50.64
2019-04-10T07:39:31.784Z,50.71
2019-04-10T07:40:08.004Z,50.75
2019-04-10T07:40:44.986Z,50.92
2019-04-10T07:41:24.323Z,51.12
2019-04-10T07:42:00.029Z,51.12
2019-04-10T07:42:39.644Z,51.14
2019-04-10T07:43:15.288Z,51.28
2019-04-10T07:43:55.062Z,51.37
2019-04-10T07:44:30.145Z,51.38
2019-04-10T07:45:06.851Z,51.38
2019-04-10T07:45:43.278Z,51.46
2019-04-10T07:46:19.888Z,51.54
2019-04-10T07:46:58.301Z,51.53
2019-04-10T07:47:35.642Z,51.51
2019-04-10T07:48:12.882Z,51.68
2019-04-10T07:48:50.250Z,51.71
2019-04-10T07:49:30.773Z,51.69
2019-04-10T07:50:08.150Z,51.80
2019-04-10T07:50:45.339Z,51.76
2019-04-10T07:51:21.849Z,51.70
2019-04-10T07:51:58.623Z,51.75
2019-04-10T07:52:35.363Z,52.28
2019-04-10T07:53:12.767Z,52.37
2019-04-10T07:53:49.596Z,52.26
2019-04-10T07:54:26.751Z,52.25
2019-04-10T07:55:04.487Z,52.15
2019-04-10T07:55:42.120Z,52.10
2019-04-10T07:56:20.883Z,52.04
2019-04-10T07:56:57.923Z,51.99
2019-04-10T07:57:34.623Z,52.04
2019-04-10T07:58:11.241Z,51.89